sensor_id;sensor_type;location;lat;lon;timestamp;P1;durP1;ratioP1;P2;durP2;ratioP2
21601;SDS011;10963;50.934;4.668;2023-02-10T00:01:07;54.93;;;27.90;;
21601;SDS011;10963;50.934;4.668;2023-02-10T00:03:35;54.10;;;28.63;;
21601;SDS011;10963;50.934;4.668;2023-02-10T00:06:03;59.67;;;29.70;;
21601;SDS011;10963;50.934;4.668;2023-02-10T00:08:29;58.17;;;29.40;;
21601;SDS011;10963;50.934;4.668;2023-02-10T00:10:58;53.97;;;28.47;;
21601;SDS011;10963;50.934;4.668;2023-02-10T00:13:26;62.63;;;28.57;;
21601;SDS011;10963;50.934;4.668;2023-02-10T00:15:52;62.87;;;29.07;;
21601;SDS011;10963;50.934;4.668;2023-02-10T00:18:18;52.43;;;27.73;;
21601;SDS011;10963;50.934;4.668;2023-02-10T00:20:47;59.97;;;28.97;;
21601;SDS011;10963;50.934;4.668;2023-02-10T00:23:13;56.67;;;30.53;;
21601;SDS011;10963;50.934;4.668;2023-02-10T00:25:43;61.10;;;29.40;;
21601;SDS011;10963;50.934;4.668;2023-02-10T00:28:09;52.47;;;27.80;;
21601;SDS011;10963;50.934;4.668;2023-02-10T00:30:35;54.30;;;29.33;;
21601;SDS011;10963;50.934;4.668;2023-02-10T00:33:02;59.47;;;29.30;;
21601;SDS011;10963;50.934;4.668;2023-02-10T00:35:30;64.20;;;30.93;;
21601;SDS011;10963;50.934;4.668;2023-02-10T00:37:59;62.20;;;30.00;;
21601;SDS011;10963;50.934;4.668;2023-02-10T00:40:27;61.00;;;29.63;;
21601;SDS011;10963;50.934;4.668;2023-02-10T00:42:55;53.83;;;27.97;;
21601;SDS011;10963;50.934;4.668;2023-02-10T00:45:23;58.33;;;29.90;;
21601;SDS011;10963;50.934;4.668;2023-02-10T00:47:49;53.87;;;29.10;;
21601;SDS011;10963;50.934;4.668;2023-02-10T00:50:14;60.50;;;29.87;;
21601;SDS011;10963;50.934;4.668;2023-02-10T00:52:42;52.83;;;27.77;;
21601;SDS011;10963;50.934;4.668;2023-02-10T00:55:10;56.10;;;28.77;;
21601;SDS011;10963;50.934;4.668;2023-02-10T00:57:36;55.03;;;29.60;;
21601;SDS011;10963;50.934;4.668;2023-02-10T01:00:02;57.37;;;29.63;;
21601;SDS011;10963;50.934;4.668;2023-02-10T01:02:29;56.60;;;28.63;;
21601;SDS011;10963;50.934;4.668;2023-02-10T01:04:54;54.70;;;29.03;;
21601;SDS011;10963;50.934;4.668;2023-02-10T01:07:20;60.00;;;29.83;;
21601;SDS011;10963;50.934;4.668;2023-02-10T01:09:46;55.17;;;27.93;;
21601;SDS011;10963;50.934;4.668;2023-02-10T01:12:13;53.60;;;29.77;;
21601;SDS011;10963;50.934;4.668;2023-02-10T01:14:41;53.10;;;28.83;;
21601;SDS011;10963;50.934;4.668;2023-02-10T01:17:07;59.70;;;29.83;;
21601;SDS011;10963;50.934;4.668;2023-02-10T01:19:33;56.17;;;29.03;;
21601;SDS011;10963;50.934;4.668;2023-02-10T01:21:59;63.53;;;30.77;;
21601;SDS011;10963;50.934;4.668;2023-02-10T01:24:27;59.60;;;29.93;;
21601;SDS011;10963;50.934;4.668;2023-02-10T01:26:52;58.10;;;29.63;;
21601;SDS011;10963;50.934;4.668;2023-02-10T01:29:20;58.57;;;29.40;;
21601;SDS011;10963;50.934;4.668;2023-02-10T01:31:53;59.23;;;30.10;;
21601;SDS011;10963;50.934;4.668;2023-02-10T01:34:21;60.30;;;31.27;;
21601;SDS011;10963;50.934;4.668;2023-02-10T01:36:47;58.63;;;30.17;;
21601;SDS011;10963;50.934;4.668;2023-02-10T01:39:12;60.70;;;29.47;;
21601;SDS011;10963;50.934;4.668;2023-02-10T01:41:41;63.73;;;32.00;;
21601;SDS011;10963;50.934;4.668;2023-02-10T01:45:10;60.33;;;30.80;;
21601;SDS011;10963;50.934;4.668;2023-02-10T01:46:52;58.53;;;30.40;;
21601;SDS011;10963;50.934;4.668;2023-02-10T01:49:25;61.83;;;31.53;;
21601;SDS011;10963;50.934;4.668;2023-02-10T01:52:08;63.00;;;30.67;;
21601;SDS011;10963;50.934;4.668;2023-02-10T01:54:43;61.43;;;31.30;;
21601;SDS011;10963;50.934;4.668;2023-02-10T01:57:14;59.07;;;31.17;;
21601;SDS011;10963;50.934;4.668;2023-02-10T01:59:41;60.87;;;31.50;;
21601;SDS011;10963;50.934;4.668;2023-02-10T02:02:08;56.40;;;30.73;;
21601;SDS011;10963;50.934;4.668;2023-02-10T02:04:41;57.80;;;31.53;;
21601;SDS011;10963;50.934;4.668;2023-02-10T02:07:18;58.83;;;30.37;;
21601;SDS011;10963;50.934;4.668;2023-02-10T02:09:50;61.23;;;30.87;;
21601;SDS011;10963;50.934;4.668;2023-02-10T02:36:51;65.70;;;32.30;;
21601;SDS011;10963;50.934;4.668;2023-02-10T02:39:40;61.63;;;30.33;;
21601;SDS011;10963;50.934;4.668;2023-02-10T02:42:17;69.23;;;32.30;;
21601;SDS011;10963;50.934;4.668;2023-02-10T02:47:34;67.47;;;32.43;;
21601;SDS011;10963;50.934;4.668;2023-02-10T02:58:38;65.90;;;33.40;;
21601;SDS011;10963;50.934;4.668;2023-02-10T03:01:39;64.67;;;31.73;;
21601;SDS011;10963;50.934;4.668;2023-02-10T03:04:11;64.40;;;31.10;;
21601;SDS011;10963;50.934;4.668;2023-02-10T03:06:42;75.77;;;32.53;;
21601;SDS011;10963;50.934;4.668;2023-02-10T03:09:10;66.17;;;31.20;;
21601;SDS011;10963;50.934;4.668;2023-02-10T03:11:39;71.17;;;33.20;;
21601;SDS011;10963;50.934;4.668;2023-02-10T03:14:05;66.33;;;32.00;;
21601;SDS011;10963;50.934;4.668;2023-02-10T03:16:31;61.43;;;33.00;;
21601;SDS011;10963;50.934;4.668;2023-02-10T03:18:57;63.63;;;31.87;;
21601;SDS011;10963;50.934;4.668;2023-02-10T03:21:22;71.30;;;33.87;;
21601;SDS011;10963;50.934;4.668;2023-02-10T03:23:48;67.03;;;32.93;;
21601;SDS011;10963;50.934;4.668;2023-02-10T03:26:14;71.03;;;32.97;;
21601;SDS011;10963;50.934;4.668;2023-02-10T03:28:39;74.53;;;33.00;;
21601;SDS011;10963;50.934;4.668;2023-02-10T03:31:08;70.40;;;33.63;;
21601;SDS011;10963;50.934;4.668;2023-02-10T03:33:36;65.43;;;32.13;;
21601;SDS011;10963;50.934;4.668;2023-02-10T03:36:02;66.40;;;32.20;;
21601;SDS011;10963;50.934;4.668;2023-02-10T03:38:30;63.30;;;31.57;;
21601;SDS011;10963;50.934;4.668;2023-02-10T03:40:58;65.30;;;32.17;;
21601;SDS011;10963;50.934;4.668;2023-02-10T03:43:26;66.47;;;32.83;;
21601;SDS011;10963;50.934;4.668;2023-02-10T03:46:00;73.17;;;33.50;;
21601;SDS011;10963;50.934;4.668;2023-02-10T03:48:29;79.23;;;33.17;;
21601;SDS011;10963;50.934;4.668;2023-02-10T03:51:01;68.17;;;32.53;;
21601;SDS011;10963;50.934;4.668;2023-02-10T03:53:28;73.07;;;32.33;;
21601;SDS011;10963;50.934;4.668;2023-02-10T03:55:55;68.27;;;32.43;;
21601;SDS011;10963;50.934;4.668;2023-02-10T03:58:25;76.43;;;33.67;;
21601;SDS011;10963;50.934;4.668;2023-02-10T04:00:51;76.40;;;34.53;;
21601;SDS011;10963;50.934;4.668;2023-02-10T04:03:20;68.60;;;32.07;;
21601;SDS011;10963;50.934;4.668;2023-02-10T04:05:48;73.00;;;31.87;;
21601;SDS011;10963;50.934;4.668;2023-02-10T04:08:16;68.77;;;32.33;;
21601;SDS011;10963;50.934;4.668;2023-02-10T04:10:42;71.47;;;31.87;;
21601;SDS011;10963;50.934;4.668;2023-02-10T04:13:08;75.57;;;33.27;;
21601;SDS011;10963;50.934;4.668;2023-02-10T04:15:33;71.83;;;33.03;;
21601;SDS011;10963;50.934;4.668;2023-02-10T04:18:01;72.73;;;33.47;;
21601;SDS011;10963;50.934;4.668;2023-02-10T04:20:29;71.30;;;32.87;;
21601;SDS011;10963;50.934;4.668;2023-02-10T04:22:56;73.03;;;32.57;;
21601;SDS011;10963;50.934;4.668;2023-02-10T04:25:22;78.77;;;36.20;;
21601;SDS011;10963;50.934;4.668;2023-02-10T04:27:50;81.50;;;36.83;;
21601;SDS011;10963;50.934;4.668;2023-02-10T04:30:16;75.40;;;34.03;;
21601;SDS011;10963;50.934;4.668;2023-02-10T04:32:41;80.23;;;33.90;;
21601;SDS011;10963;50.934;4.668;2023-02-10T04:35:07;66.20;;;31.17;;
21601;SDS011;10963;50.934;4.668;2023-02-10T04:37:35;71.70;;;32.40;;
21601;SDS011;10963;50.934;4.668;2023-02-10T04:40:03;64.23;;;31.13;;
21601;SDS011;10963;50.934;4.668;2023-02-10T04:42:32;66.03;;;30.93;;
21601;SDS011;10963;50.934;4.668;2023-02-10T04:44:58;67.07;;;31.20;;
21601;SDS011;10963;50.934;4.668;2023-02-10T04:47:25;70.37;;;31.83;;
21601;SDS011;10963;50.934;4.668;2023-02-10T04:49:53;72.67;;;30.60;;
21601;SDS011;10963;50.934;4.668;2023-02-10T04:52:19;64.27;;;29.40;;
21601;SDS011;10963;50.934;4.668;2023-02-10T04:54:45;70.30;;;32.00;;
21601;SDS011;10963;50.934;4.668;2023-02-10T04:57:13;67.50;;;31.87;;
21601;SDS011;10963;50.934;4.668;2023-02-10T04:59:41;79.00;;;33.47;;
21601;SDS011;10963;50.934;4.668;2023-02-10T05:02:07;79.87;;;34.37;;
21601;SDS011;10963;50.934;4.668;2023-02-10T05:04:32;80.40;;;36.30;;
21601;SDS011;10963;50.934;4.668;2023-02-10T05:06:58;78.30;;;35.00;;
21601;SDS011;10963;50.934;4.668;2023-02-10T05:09:24;80.23;;;33.57;;
21601;SDS011;10963;50.934;4.668;2023-02-10T05:11:51;79.07;;;34.73;;
21601;SDS011;10963;50.934;4.668;2023-02-10T05:14:17;74.53;;;32.77;;
21601;SDS011;10963;50.934;4.668;2023-02-10T05:16:45;74.30;;;32.97;;
21601;SDS011;10963;50.934;4.668;2023-02-10T05:19:11;72.00;;;30.87;;
21601;SDS011;10963;50.934;4.668;2023-02-10T05:21:39;73.50;;;33.43;;
21601;SDS011;10963;50.934;4.668;2023-02-10T05:24:05;73.53;;;30.80;;
21601;SDS011;10963;50.934;4.668;2023-02-10T05:26:33;70.87;;;30.90;;
21601;SDS011;10963;50.934;4.668;2023-02-10T05:28:59;71.20;;;30.70;;
21601;SDS011;10963;50.934;4.668;2023-02-10T05:31:24;66.93;;;31.07;;
21601;SDS011;10963;50.934;4.668;2023-02-10T05:33:52;66.73;;;30.00;;
21601;SDS011;10963;50.934;4.668;2023-02-10T05:36:18;82.70;;;31.27;;
21601;SDS011;10963;50.934;4.668;2023-02-10T05:38:46;72.73;;;31.23;;
21601;SDS011;10963;50.934;4.668;2023-02-10T05:41:31;67.03;;;29.80;;
21601;SDS011;10963;50.934;4.668;2023-02-10T05:43:59;70.40;;;31.70;;
21601;SDS011;10963;50.934;4.668;2023-02-10T05:46:25;73.40;;;33.10;;
21601;SDS011;10963;50.934;4.668;2023-02-10T05:48:50;87.40;;;35.33;;
21601;SDS011;10963;50.934;4.668;2023-02-10T05:51:16;81.20;;;33.90;;
21601;SDS011;10963;50.934;4.668;2023-02-10T05:53:42;79.57;;;31.47;;
21601;SDS011;10963;50.934;4.668;2023-02-10T05:56:07;79.77;;;33.97;;
21601;SDS011;10963;50.934;4.668;2023-02-10T05:58:33;93.27;;;35.30;;
21601;SDS011;10963;50.934;4.668;2023-02-10T06:01:05;91.37;;;34.53;;
21601;SDS011;10963;50.934;4.668;2023-02-10T06:03:34;94.73;;;36.43;;
21601;SDS011;10963;50.934;4.668;2023-02-10T06:06:00;95.63;;;36.70;;
21601;SDS011;10963;50.934;4.668;2023-02-10T06:08:26;80.93;;;33.43;;
21601;SDS011;10963;50.934;4.668;2023-02-10T06:10:52;79.57;;;32.70;;
21601;SDS011;10963;50.934;4.668;2023-02-10T06:13:18;99.77;;;36.90;;
21601;SDS011;10963;50.934;4.668;2023-02-10T06:15:44;86.63;;;33.20;;
21601;SDS011;10963;50.934;4.668;2023-02-10T06:18:10;88.70;;;34.70;;
21601;SDS011;10963;50.934;4.668;2023-02-10T06:20:35;88.10;;;33.57;;
21601;SDS011;10963;50.934;4.668;2023-02-10T06:23:01;85.53;;;34.43;;
21601;SDS011;10963;50.934;4.668;2023-02-10T06:25:34;91.43;;;37.20;;
21601;SDS011;10963;50.934;4.668;2023-02-10T06:28:01;89.13;;;34.67;;
21601;SDS011;10963;50.934;4.668;2023-02-10T06:30:27;86.53;;;34.53;;
21601;SDS011;10963;50.934;4.668;2023-02-10T06:32:55;94.33;;;34.97;;
21601;SDS011;10963;50.934;4.668;2023-02-10T06:35:23;85.90;;;33.93;;
21601;SDS011;10963;50.934;4.668;2023-02-10T06:37:48;87.67;;;34.33;;
21601;SDS011;10963;50.934;4.668;2023-02-10T06:40:14;87.77;;;36.80;;
21601;SDS011;10963;50.934;4.668;2023-02-10T06:42:42;99.00;;;39.17;;
21601;SDS011;10963;50.934;4.668;2023-02-10T06:45:08;95.17;;;36.53;;
21601;SDS011;10963;50.934;4.668;2023-02-10T06:47:36;88.70;;;37.20;;
21601;SDS011;10963;50.934;4.668;2023-02-10T06:50:03;96.23;;;37.37;;
21601;SDS011;10963;50.934;4.668;2023-02-10T06:52:29;93.37;;;38.47;;
21601;SDS011;10963;50.934;4.668;2023-02-10T06:54:56;88.33;;;36.00;;
21601;SDS011;10963;50.934;4.668;2023-02-10T06:57:24;99.87;;;37.33;;
21601;SDS011;10963;50.934;4.668;2023-02-10T06:59:50;89.77;;;37.03;;
21601;SDS011;10963;50.934;4.668;2023-02-10T07:02:17;99.10;;;38.60;;
21601;SDS011;10963;50.934;4.668;2023-02-10T07:04:46;105.63;;;40.47;;
21601;SDS011;10963;50.934;4.668;2023-02-10T07:07:14;95.17;;;40.70;;
21601;SDS011;10963;50.934;4.668;2023-02-10T07:09:40;98.13;;;40.77;;
21601;SDS011;10963;50.934;4.668;2023-02-10T07:12:05;98.80;;;40.87;;
21601;SDS011;10963;50.934;4.668;2023-02-10T07:14:31;97.07;;;41.13;;
21601;SDS011;10963;50.934;4.668;2023-02-10T07:16:57;96.33;;;40.50;;
21601;SDS011;10963;50.934;4.668;2023-02-10T07:19:23;99.57;;;42.47;;
21601;SDS011;10963;50.934;4.668;2023-02-10T07:21:53;93.80;;;40.20;;
21601;SDS011;10963;50.934;4.668;2023-02-10T07:24:21;104.70;;;42.43;;
21601;SDS011;10963;50.934;4.668;2023-02-10T07:26:47;100.80;;;41.07;;
21601;SDS011;10963;50.934;4.668;2023-02-10T07:29:15;99.27;;;41.03;;
21601;SDS011;10963;50.934;4.668;2023-02-10T07:31:41;99.20;;;42.47;;
21601;SDS011;10963;50.934;4.668;2023-02-10T07:34:06;94.77;;;42.13;;
21601;SDS011;10963;50.934;4.668;2023-02-10T07:36:32;104.33;;;43.30;;
21601;SDS011;10963;50.934;4.668;2023-02-10T07:38:58;92.00;;;40.37;;
21601;SDS011;10963;50.934;4.668;2023-02-10T07:41:23;112.23;;;44.53;;
21601;SDS011;10963;50.934;4.668;2023-02-10T07:43:51;103.63;;;43.70;;
21601;SDS011;10963;50.934;4.668;2023-02-10T07:46:17;92.57;;;42.83;;
21601;SDS011;10963;50.934;4.668;2023-02-10T07:48:43;102.87;;;43.63;;
21601;SDS011;10963;50.934;4.668;2023-02-10T07:51:09;99.83;;;41.20;;
21601;SDS011;10963;50.934;4.668;2023-02-10T07:53:37;104.50;;;42.70;;
21601;SDS011;10963;50.934;4.668;2023-02-10T07:56:05;95.00;;;42.63;;
21601;SDS011;10963;50.934;4.668;2023-02-10T07:58:33;91.90;;;42.00;;
21601;SDS011;10963;50.934;4.668;2023-02-10T08:01:05;110.97;;;45.97;;
21601;SDS011;10963;50.934;4.668;2023-02-10T08:03:31;98.27;;;42.33;;
21601;SDS011;10963;50.934;4.668;2023-02-10T08:05:57;93.40;;;42.90;;
21601;SDS011;10963;50.934;4.668;2023-02-10T08:08:22;94.00;;;43.53;;
21601;SDS011;10963;50.934;4.668;2023-02-10T08:10:48;99.10;;;43.93;;
21601;SDS011;10963;50.934;4.668;2023-02-10T08:13:19;97.97;;;45.60;;
21601;SDS011;10963;50.934;4.668;2023-02-10T08:15:44;99.17;;;43.23;;
21601;SDS011;10963;50.934;4.668;2023-02-10T08:18:10;94.97;;;42.20;;
21601;SDS011;10963;50.934;4.668;2023-02-10T08:20:36;90.27;;;43.63;;
21601;SDS011;10963;50.934;4.668;2023-02-10T08:23:09;98.63;;;41.70;;
21601;SDS011;10963;50.934;4.668;2023-02-10T08:25:39;90.97;;;42.57;;
21601;SDS011;10963;50.934;4.668;2023-02-10T08:28:05;92.70;;;43.63;;
21601;SDS011;10963;50.934;4.668;2023-02-10T08:30:33;93.57;;;43.43;;
21601;SDS011;10963;50.934;4.668;2023-02-10T08:33:01;97.13;;;43.70;;
21601;SDS011;10963;50.934;4.668;2023-02-10T08:35:32;93.33;;;42.33;;
21601;SDS011;10963;50.934;4.668;2023-02-10T08:37:59;97.60;;;43.67;;
21601;SDS011;10963;50.934;4.668;2023-02-10T08:40:25;94.67;;;46.07;;
21601;SDS011;10963;50.934;4.668;2023-02-10T08:42:55;99.73;;;44.10;;
21601;SDS011;10963;50.934;4.668;2023-02-10T08:45:21;87.97;;;43.27;;
21601;SDS011;10963;50.934;4.668;2023-02-10T08:47:47;87.70;;;44.07;;
21601;SDS011;10963;50.934;4.668;2023-02-10T08:50:15;91.93;;;42.47;;
21601;SDS011;10963;50.934;4.668;2023-02-10T08:52:41;97.33;;;43.03;;
21601;SDS011;10963;50.934;4.668;2023-02-10T08:55:09;99.63;;;43.57;;
21601;SDS011;10963;50.934;4.668;2023-02-10T08:57:36;107.97;;;47.33;;
21601;SDS011;10963;50.934;4.668;2023-02-10T09:00:03;100.63;;;46.07;;
21601;SDS011;10963;50.934;4.668;2023-02-10T09:02:31;101.37;;;45.30;;
21601;SDS011;10963;50.934;4.668;2023-02-10T09:04:57;97.93;;;45.40;;
21601;SDS011;10963;50.934;4.668;2023-02-10T09:07:22;102.67;;;46.43;;
21601;SDS011;10963;50.934;4.668;2023-02-10T09:09:48;100.33;;;46.90;;
21601;SDS011;10963;50.934;4.668;2023-02-10T09:12:14;93.10;;;45.40;;
21601;SDS011;10963;50.934;4.668;2023-02-10T09:14:40;103.50;;;46.10;;
21601;SDS011;10963;50.934;4.668;2023-02-10T09:17:06;97.67;;;45.00;;
21601;SDS011;10963;50.934;4.668;2023-02-10T09:19:38;96.27;;;46.10;;
21601;SDS011;10963;50.934;4.668;2023-02-10T09:22:04;98.43;;;45.17;;
21601;SDS011;10963;50.934;4.668;2023-02-10T09:24:30;102.03;;;46.67;;
21601;SDS011;10963;50.934;4.668;2023-02-10T09:26:59;91.10;;;43.73;;
21601;SDS011;10963;50.934;4.668;2023-02-10T09:29:25;95.43;;;43.40;;
21601;SDS011;10963;50.934;4.668;2023-02-10T09:31:53;93.90;;;44.33;;
21601;SDS011;10963;50.934;4.668;2023-02-10T09:34:19;97.90;;;43.63;;
21601;SDS011;10963;50.934;4.668;2023-02-10T09:36:47;92.13;;;41.57;;
21601;SDS011;10963;50.934;4.668;2023-02-10T09:39:13;93.50;;;42.27;;
21601;SDS011;10963;50.934;4.668;2023-02-10T09:41:48;88.83;;;40.30;;
21601;SDS011;10963;50.934;4.668;2023-02-10T09:44:31;95.63;;;41.53;;
21601;SDS011;10963;50.934;4.668;2023-02-10T09:47:13;89.50;;;40.37;;
21601;SDS011;10963;50.934;4.668;2023-02-10T09:53:16;90.23;;;40.80;;
21601;SDS011;10963;50.934;4.668;2023-02-10T09:55:56;89.70;;;40.47;;
21601;SDS011;10963;50.934;4.668;2023-02-10T10:03:48;92.40;;;41.77;;
21601;SDS011;10963;50.934;4.668;2023-02-10T10:06:30;84.83;;;38.23;;
21601;SDS011;10963;50.934;4.668;2023-02-10T10:14:21;94.13;;;40.67;;
21601;SDS011;10963;50.934;4.668;2023-02-10T10:19:43;99.03;;;41.57;;
21601;SDS011;10963;50.934;4.668;2023-02-10T10:30:47;98.50;;;42.70;;
21601;SDS011;10963;50.934;4.668;2023-02-10T10:33:23;100.17;;;43.77;;
21601;SDS011;10963;50.934;4.668;2023-02-10T10:36:02;97.97;;;42.87;;
21601;SDS011;10963;50.934;4.668;2023-02-10T10:38:37;100.87;;;43.57;;
21601;SDS011;10963;50.934;4.668;2023-02-10T10:41:10;89.93;;;41.77;;
21601;SDS011;10963;50.934;4.668;2023-02-10T10:43:49;100.43;;;44.67;;
21601;SDS011;10963;50.934;4.668;2023-02-10T10:46:38;93.03;;;43.23;;
21601;SDS011;10963;50.934;4.668;2023-02-10T10:49:14;97.60;;;42.67;;
21601;SDS011;10963;50.934;4.668;2023-02-10T10:51:40;98.63;;;44.30;;
21601;SDS011;10963;50.934;4.668;2023-02-10T10:54:06;99.97;;;41.83;;
21601;SDS011;10963;50.934;4.668;2023-02-10T10:56:53;100.93;;;40.47;;
21601;SDS011;10963;50.934;4.668;2023-02-10T10:59:27;93.87;;;42.23;;
21601;SDS011;10963;50.934;4.668;2023-02-10T11:01:58;96.87;;;43.67;;
21601;SDS011;10963;50.934;4.668;2023-02-10T11:04:24;104.40;;;43.57;;
21601;SDS011;10963;50.934;4.668;2023-02-10T11:06:58;100.70;;;41.90;;
21601;SDS011;10963;50.934;4.668;2023-02-10T11:09:31;96.27;;;43.03;;
21601;SDS011;10963;50.934;4.668;2023-02-10T11:12:21;98.83;;;42.57;;
21601;SDS011;10963;50.934;4.668;2023-02-10T11:14:52;97.33;;;41.60;;
21601;SDS011;10963;50.934;4.668;2023-02-10T11:17:34;99.23;;;42.80;;
21601;SDS011;10963;50.934;4.668;2023-02-10T11:22:37;102.50;;;44.33;;
21601;SDS011;10963;50.934;4.668;2023-02-10T11:27:51;97.73;;;43.73;;
21601;SDS011;10963;50.934;4.668;2023-02-10T11:30:30;101.57;;;42.83;;
21601;SDS011;10963;50.934;4.668;2023-02-10T11:33:03;102.30;;;44.57;;
21601;SDS011;10963;50.934;4.668;2023-02-10T11:35:32;93.67;;;42.60;;
21601;SDS011;10963;50.934;4.668;2023-02-10T11:38:03;98.33;;;42.43;;
21601;SDS011;10963;50.934;4.668;2023-02-10T11:43:15;85.27;;;40.13;;
21601;SDS011;10963;50.934;4.668;2023-02-10T11:45:50;73.50;;;36.77;;
21601;SDS011;10963;50.934;4.668;2023-02-10T11:48:22;79.37;;;36.63;;
21601;SDS011;10963;50.934;4.668;2023-02-10T11:51:34;84.90;;;36.47;;
21601;SDS011;10963;50.934;4.668;2023-02-10T11:53:43;77.77;;;36.93;;
21601;SDS011;10963;50.934;4.668;2023-02-10T11:58:52;84.00;;;36.93;;
21601;SDS011;10963;50.934;4.668;2023-02-10T12:01:42;89.93;;;37.90;;
21601;SDS011;10963;50.934;4.668;2023-02-10T12:31:28;49.10;;;23.33;;
21601;SDS011;10963;50.934;4.668;2023-02-10T12:40:05;56.20;;;25.77;;
21601;SDS011;10963;50.934;4.668;2023-02-10T12:42:20;57.93;;;26.33;;
21601;SDS011;10963;50.934;4.668;2023-02-10T12:53:30;56.37;;;25.23;;
21601;SDS011;10963;50.934;4.668;2023-02-10T12:59:02;53.93;;;27.13;;
21601;SDS011;10963;50.934;4.668;2023-02-10T13:04:10;58.13;;;27.47;;
21601;SDS011;10963;50.934;4.668;2023-02-10T13:06:44;61.10;;;26.57;;
21601;SDS011;10963;50.934;4.668;2023-02-10T13:09:38;56.17;;;27.30;;
21601;SDS011;10963;50.934;4.668;2023-02-10T13:12:27;62.77;;;26.80;;
21601;SDS011;10963;50.934;4.668;2023-02-10T13:17:50;55.17;;;26.63;;
21601;SDS011;10963;50.934;4.668;2023-02-10T13:20:23;55.27;;;25.43;;
21601;SDS011;10963;50.934;4.668;2023-02-10T13:25:47;49.60;;;24.67;;
21601;SDS011;10963;50.934;4.668;2023-02-10T13:37:34;56.27;;;25.57;;
21601;SDS011;10963;50.934;4.668;2023-02-10T13:39:53;54.23;;;25.23;;
21601;SDS011;10963;50.934;4.668;2023-02-10T13:57:56;67.07;;;28.27;;
21601;SDS011;10963;50.934;4.668;2023-02-10T14:00:30;60.23;;;26.30;;
21601;SDS011;10963;50.934;4.668;2023-02-10T14:08:31;51.33;;;23.53;;
21601;SDS011;10963;50.934;4.668;2023-02-10T14:13:39;54.73;;;24.13;;
21601;SDS011;10963;50.934;4.668;2023-02-10T14:16:27;57.93;;;26.77;;
21601;SDS011;10963;50.934;4.668;2023-02-10T14:18:58;59.60;;;24.00;;
21601;SDS011;10963;50.934;4.668;2023-02-10T14:21:36;61.23;;;26.43;;
21601;SDS011;10963;50.934;4.668;2023-02-10T14:24:14;59.27;;;27.13;;
21601;SDS011;10963;50.934;4.668;2023-02-10T14:26:51;61.53;;;25.67;;
21601;SDS011;10963;50.934;4.668;2023-02-10T14:29:18;59.60;;;26.37;;
21601;SDS011;10963;50.934;4.668;2023-02-10T14:31:49;58.57;;;25.73;;
21601;SDS011;10963;50.934;4.668;2023-02-10T14:34:24;60.27;;;25.80;;
21601;SDS011;10963;50.934;4.668;2023-02-10T14:37:01;57.27;;;24.00;;
21601;SDS011;10963;50.934;4.668;2023-02-10T14:39:48;65.20;;;27.07;;
21601;SDS011;10963;50.934;4.668;2023-02-10T14:42:20;63.77;;;26.73;;
21601;SDS011;10963;50.934;4.668;2023-02-10T14:44:51;60.50;;;26.40;;
21601;SDS011;10963;50.934;4.668;2023-02-10T14:47:35;62.83;;;27.30;;
21601;SDS011;10963;50.934;4.668;2023-02-10T14:50:04;61.57;;;26.80;;
21601;SDS011;10963;50.934;4.668;2023-02-10T14:52:34;63.53;;;26.60;;
21601;SDS011;10963;50.934;4.668;2023-02-10T14:55:01;67.13;;;28.27;;
21601;SDS011;10963;50.934;4.668;2023-02-10T14:57:46;59.67;;;27.03;;
21601;SDS011;10963;50.934;4.668;2023-02-10T15:00:11;64.77;;;26.00;;
21601;SDS011;10963;50.934;4.668;2023-02-10T15:02:38;63.20;;;27.27;;
21601;SDS011;10963;50.934;4.668;2023-02-10T15:05:06;72.20;;;28.40;;
21601;SDS011;10963;50.934;4.668;2023-02-10T15:07:41;65.17;;;28.23;;
21601;SDS011;10963;50.934;4.668;2023-02-10T15:10:19;62.70;;;27.60;;
21601;SDS011;10963;50.934;4.668;2023-02-10T15:12:58;64.93;;;26.50;;
21601;SDS011;10963;50.934;4.668;2023-02-10T15:18:02;66.93;;;28.87;;
21601;SDS011;10963;50.934;4.668;2023-02-10T15:20:33;63.53;;;27.30;;
21601;SDS011;10963;50.934;4.668;2023-02-10T15:27:55;65.03;;;28.03;;
21601;SDS011;10963;50.934;4.668;2023-02-10T15:30:28;67.63;;;28.30;;
21601;SDS011;10963;50.934;4.668;2023-02-10T15:32:57;63.33;;;27.23;;
21601;SDS011;10963;50.934;4.668;2023-02-10T15:35:24;67.40;;;27.67;;
21601;SDS011;10963;50.934;4.668;2023-02-10T15:37:56;67.67;;;28.53;;
21601;SDS011;10963;50.934;4.668;2023-02-10T15:40:28;65.13;;;26.37;;
21601;SDS011;10963;50.934;4.668;2023-02-10T15:43:05;67.80;;;28.23;;
21601;SDS011;10963;50.934;4.668;2023-02-10T15:45:47;63.53;;;26.50;;
21601;SDS011;10963;50.934;4.668;2023-02-10T15:48:17;66.30;;;27.57;;
21601;SDS011;10963;50.934;4.668;2023-02-10T15:50:45;65.60;;;29.13;;
21601;SDS011;10963;50.934;4.668;2023-02-10T15:53:13;70.10;;;28.57;;
21601;SDS011;10963;50.934;4.668;2023-02-10T15:55:45;71.60;;;29.37;;
21601;SDS011;10963;50.934;4.668;2023-02-10T15:58:14;74.47;;;29.27;;
21601;SDS011;10963;50.934;4.668;2023-02-10T16:00:43;68.43;;;29.70;;
21601;SDS011;10963;50.934;4.668;2023-02-10T16:03:10;67.80;;;29.07;;
21601;SDS011;10963;50.934;4.668;2023-02-10T16:05:42;70.90;;;28.67;;
21601;SDS011;10963;50.934;4.668;2023-02-10T16:08:16;61.90;;;27.80;;
21601;SDS011;10963;50.934;4.668;2023-02-10T16:10:47;65.43;;;29.27;;
21601;SDS011;10963;50.934;4.668;2023-02-10T16:13:14;72.10;;;29.23;;
21601;SDS011;10963;50.934;4.668;2023-02-10T16:15:40;73.27;;;28.00;;
21601;SDS011;10963;50.934;4.668;2023-02-10T16:18:10;66.70;;;27.93;;
21601;SDS011;10963;50.934;4.668;2023-02-10T16:20:37;70.00;;;28.33;;
21601;SDS011;10963;50.934;4.668;2023-02-10T16:23:04;67.43;;;29.53;;
21601;SDS011;10963;50.934;4.668;2023-02-10T16:25:40;70.47;;;30.20;;
21601;SDS011;10963;50.934;4.668;2023-02-10T16:28:06;71.33;;;29.43;;
21601;SDS011;10963;50.934;4.668;2023-02-10T16:30:34;75.37;;;30.87;;
21601;SDS011;10963;50.934;4.668;2023-02-10T16:33:00;72.77;;;29.83;;
21601;SDS011;10963;50.934;4.668;2023-02-10T16:35:27;72.97;;;28.93;;
21601;SDS011;10963;50.934;4.668;2023-02-10T16:37:52;76.00;;;29.50;;
21601;SDS011;10963;50.934;4.668;2023-02-10T16:40:29;70.03;;;29.97;;
21601;SDS011;10963;50.934;4.668;2023-02-10T16:42:57;72.23;;;31.20;;
21601;SDS011;10963;50.934;4.668;2023-02-10T16:45:25;84.03;;;35.33;;
21601;SDS011;10963;50.934;4.668;2023-02-10T16:47:52;78.60;;;32.33;;
21601;SDS011;10963;50.934;4.668;2023-02-10T16:50:39;91.13;;;35.57;;
21601;SDS011;10963;50.934;4.668;2023-02-10T16:53:10;84.27;;;33.23;;
21601;SDS011;10963;50.934;4.668;2023-02-10T16:55:38;89.93;;;34.47;;
21601;SDS011;10963;50.934;4.668;2023-02-10T16:58:06;85.03;;;34.67;;
21601;SDS011;10963;50.934;4.668;2023-02-10T17:00:34;87.07;;;33.90;;
21601;SDS011;10963;50.934;4.668;2023-02-10T17:03:00;85.03;;;34.23;;
21601;SDS011;10963;50.934;4.668;2023-02-10T17:05:26;90.57;;;36.07;;
21601;SDS011;10963;50.934;4.668;2023-02-10T17:07:52;88.23;;;36.47;;
21601;SDS011;10963;50.934;4.668;2023-02-10T17:10:21;89.77;;;36.17;;
21601;SDS011;10963;50.934;4.668;2023-02-10T17:12:51;86.43;;;35.17;;
21601;SDS011;10963;50.934;4.668;2023-02-10T17:15:17;89.27;;;36.97;;
21601;SDS011;10963;50.934;4.668;2023-02-10T17:17:43;94.97;;;37.27;;
21601;SDS011;10963;50.934;4.668;2023-02-10T17:23:04;95.57;;;38.97;;